sensor_id;sensor_type;location;lat;lon;timestamp;P1;durP1;ratioP1;P2;durP2;ratioP2
38851;SDS011;24605;50.092;9.182;2024-01-25T00:00:51;22.95;;;4.53;;
38851;SDS011;24605;50.092;9.182;2024-01-25T00:03:17;24.10;;;4.22;;
38851;SDS011;24605;50.092;9.182;2024-01-25T00:05:45;31.17;;;4.45;;
38851;SDS011;24605;50.092;9.182;2024-01-25T00:08:13;33.10;;;5.55;;
38851;SDS011;24605;50.092;9.182;2024-01-25T00:10:40;27.40;;;4.45;;
38851;SDS011;24605;50.092;9.182;2024-01-25T00:13:07;26.40;;;4.45;;
38851;SDS011;24605;50.092;9.182;2024-01-25T00:15:33;28.60;;;5.22;;
38851;SDS011;24605;50.092;9.182;2024-01-25T00:18:00;30.65;;;4.88;;
38851;SDS011;24605;50.092;9.182;2024-01-25T00:20:26;31.48;;;4.50;;
38851;SDS011;24605;50.092;9.182;2024-01-25T00:22:54;31.25;;;4.75;;
38851;SDS011;24605;50.092;9.182;2024-01-25T00:25:20;30.55;;;5.05;;
38851;SDS011;24605;50.092;9.182;2024-01-25T00:27:47;31.83;;;4.88;;
38851;SDS011;24605;50.092;9.182;2024-01-25T00:30:13;29.70;;;4.65;;
38851;SDS011;24605;50.092;9.182;2024-01-25T00:32:40;25.38;;;4.50;;
38851;SDS011;24605;50.092;9.182;2024-01-25T00:35:07;19.65;;;4.38;;
38851;SDS011;24605;50.092;9.182;2024-01-25T00:37:35;26.02;;;4.30;;
38851;SDS011;24605;50.092;9.182;2024-01-25T00:40:04;26.80;;;4.47;;
38851;SDS011;24605;50.092;9.182;2024-01-25T00:42:31;31.33;;;5.00;;
38851;SDS011;24605;50.092;9.182;2024-01-25T00:45:05;26.50;;;4.82;;
38851;SDS011;24605;50.092;9.182;2024-01-25T00:47:32;30.20;;;5.20;;
38851;SDS011;24605;50.092;9.182;2024-01-25T00:49:59;25.63;;;4.85;;
38851;SDS011;24605;50.092;9.182;2024-01-25T00:52:26;21.92;;;4.78;;
38851;SDS011;24605;50.092;9.182;2024-01-25T00:54:53;30.70;;;5.03;;
38851;SDS011;24605;50.092;9.182;2024-01-25T00:57:22;26.23;;;4.20;;
38851;SDS011;24605;50.092;9.182;2024-01-25T00:59:49;32.88;;;4.10;;
38851;SDS011;24605;50.092;9.182;2024-01-25T01:02:16;28.52;;;4.72;;
38851;SDS011;24605;50.092;9.182;2024-01-25T01:04:43;32.25;;;4.47;;
38851;SDS011;24605;50.092;9.182;2024-01-25T01:07:10;26.70;;;5.20;;
38851;SDS011;24605;50.092;9.182;2024-01-25T01:09:37;31.45;;;4.38;;
38851;SDS011;24605;50.092;9.182;2024-01-25T01:12:03;26.65;;;4.47;;
38851;SDS011;24605;50.092;9.182;2024-01-25T01:14:31;26.92;;;4.93;;
38851;SDS011;24605;50.092;9.182;2024-01-25T01:16:57;27.33;;;4.60;;
38851;SDS011;24605;50.092;9.182;2024-01-25T01:19:24;32.92;;;5.60;;
38851;SDS011;24605;50.092;9.182;2024-01-25T01:21:50;22.05;;;4.50;;
38851;SDS011;24605;50.092;9.182;2024-01-25T01:24:17;32.35;;;5.07;;
38851;SDS011;24605;50.092;9.182;2024-01-25T01:26:43;29.77;;;5.38;;
38851;SDS011;24605;50.092;9.182;2024-01-25T01:29:11;30.35;;;5.22;;
38851;SDS011;24605;50.092;9.182;2024-01-25T01:31:39;31.77;;;4.60;;
38851;SDS011;24605;50.092;9.182;2024-01-25T01:34:05;28.23;;;4.65;;
38851;SDS011;24605;50.092;9.182;2024-01-25T01:36:32;29.30;;;4.65;;
38851;SDS011;24605;50.092;9.182;2024-01-25T01:38:58;31.75;;;5.53;;
38851;SDS011;24605;50.092;9.182;2024-01-25T01:41:25;22.63;;;4.55;;
38851;SDS011;24605;50.092;9.182;2024-01-25T01:43:52;30.52;;;4.65;;
38851;SDS011;24605;50.092;9.182;2024-01-25T01:46:20;33.67;;;5.88;;
38851;SDS011;24605;50.092;9.182;2024-01-25T01:48:59;29.55;;;4.20;;
38851;SDS011;24605;50.092;9.182;2024-01-25T01:51:25;29.35;;;4.13;;
38851;SDS011;24605;50.092;9.182;2024-01-25T01:53:52;22.70;;;4.38;;
38851;SDS011;24605;50.092;9.182;2024-01-25T01:56:20;27.27;;;4.38;;
38851;SDS011;24605;50.092;9.182;2024-01-25T01:58:47;31.20;;;4.93;;
38851;SDS011;24605;50.092;9.182;2024-01-25T02:01:14;31.50;;;5.50;;
38851;SDS011;24605;50.092;9.182;2024-01-25T02:03:41;28.30;;;4.97;;
38851;SDS011;24605;50.092;9.182;2024-01-25T02:06:08;26.25;;;4.45;;
38851;SDS011;24605;50.092;9.182;2024-01-25T02:08:35;38.47;;;4.53;;
38851;SDS011;24605;50.092;9.182;2024-01-25T02:11:02;26.98;;;4.43;;
38851;SDS011;24605;50.092;9.182;2024-01-25T02:13:29;26.85;;;4.80;;
38851;SDS011;24605;50.092;9.182;2024-01-25T02:15:55;25.58;;;4.43;;
38851;SDS011;24605;50.092;9.182;2024-01-25T02:18:22;29.55;;;4.85;;
38851;SDS011;24605;50.092;9.182;2024-01-25T02:20:48;29.40;;;4.78;;
38851;SDS011;24605;50.092;9.182;2024-01-25T02:23:16;33.17;;;4.93;;
38851;SDS011;24605;50.092;9.182;2024-01-25T02:25:42;30.65;;;4.22;;
38851;SDS011;24605;50.092;9.182;2024-01-25T02:28:09;28.17;;;4.57;;
38851;SDS011;24605;50.092;9.182;2024-01-25T02:30:35;27.08;;;4.22;;
38851;SDS011;24605;50.092;9.182;2024-01-25T02:33:03;26.42;;;4.30;;
38851;SDS011;24605;50.092;9.182;2024-01-25T02:35:30;29.73;;;5.13;;
38851;SDS011;24605;50.092;9.182;2024-01-25T02:37:56;29.92;;;6.03;;
38851;SDS011;24605;50.092;9.182;2024-01-25T02:40:24;28.02;;;5.38;;
38851;SDS011;24605;50.092;9.182;2024-01-25T02:42:51;25.73;;;4.40;;
38851;SDS011;24605;50.092;9.182;2024-01-25T02:45:17;28.63;;;4.97;;
38851;SDS011;24605;50.092;9.182;2024-01-25T02:47:44;28.40;;;4.75;;
38851;SDS011;24605;50.092;9.182;2024-01-25T02:50:10;28.02;;;4.53;;
38851;SDS011;24605;50.092;9.182;2024-01-25T02:52:37;29.33;;;4.65;;
38851;SDS011;24605;50.092;9.182;2024-01-25T02:55:03;29.35;;;4.63;;
38851;SDS011;24605;50.092;9.182;2024-01-25T02:57:31;26.58;;;4.50;;
38851;SDS011;24605;50.092;9.182;2024-01-25T02:59:58;24.95;;;4.97;;
38851;SDS011;24605;50.092;9.182;2024-01-25T03:02:25;27.50;;;4.80;;
38851;SDS011;24605;50.092;9.182;2024-01-25T03:04:52;27.23;;;5.40;;
38851;SDS011;24605;50.092;9.182;2024-01-25T03:07:18;22.75;;;4.85;;
38851;SDS011;24605;50.092;9.182;2024-01-25T03:09:45;33.40;;;5.15;;
38851;SDS011;24605;50.092;9.182;2024-01-25T03:12:11;34.13;;;4.75;;
38851;SDS011;24605;50.092;9.182;2024-01-25T03:14:39;28.65;;;5.13;;
38851;SDS011;24605;50.092;9.182;2024-01-25T03:17:06;35.65;;;4.95;;
38851;SDS011;24605;50.092;9.182;2024-01-25T03:19:32;24.63;;;4.72;;
38851;SDS011;24605;50.092;9.182;2024-01-25T03:21:59;26.85;;;5.00;;
38851;SDS011;24605;50.092;9.182;2024-01-25T03:24:26;27.50;;;4.22;;
38851;SDS011;24605;50.092;9.182;2024-01-25T03:26:53;30.95;;;5.53;;
38851;SDS011;24605;50.092;9.182;2024-01-25T03:29:19;27.50;;;4.47;;
38851;SDS011;24605;50.092;9.182;2024-01-25T03:31:47;30.35;;;4.90;;
38851;SDS011;24605;50.092;9.182;2024-01-25T03:34:13;28.98;;;4.70;;
38851;SDS011;24605;50.092;9.182;2024-01-25T03:36:40;31.98;;;4.30;;
38851;SDS011;24605;50.092;9.182;2024-01-25T03:39:06;29.15;;;5.22;;
38851;SDS011;24605;50.092;9.182;2024-01-25T03:41:33;37.05;;;5.43;;
38851;SDS011;24605;50.092;9.182;2024-01-25T03:43:59;28.75;;;4.07;;
38851;SDS011;24605;50.092;9.182;2024-01-25T03:46:26;32.53;;;4.93;;
38851;SDS011;24605;50.092;9.182;2024-01-25T03:48:54;30.63;;;3.70;;
38851;SDS011;24605;50.092;9.182;2024-01-25T03:51:20;27.60;;;4.72;;
38851;SDS011;24605;50.092;9.182;2024-01-25T03:53:49;30.65;;;4.82;;
38851;SDS011;24605;50.092;9.182;2024-01-25T03:56:17;29.98;;;4.93;;
38851;SDS011;24605;50.092;9.182;2024-01-25T03:58:44;28.95;;;4.50;;
38851;SDS011;24605;50.092;9.182;2024-01-25T04:01:11;26.05;;;4.72;;
38851;SDS011;24605;50.092;9.182;2024-01-25T04:03:37;24.10;;;4.45;;
38851;SDS011;24605;50.092;9.182;2024-01-25T04:06:05;27.17;;;4.57;;
38851;SDS011;24605;50.092;9.182;2024-01-25T04:08:32;24.88;;;4.43;;
38851;SDS011;24605;50.092;9.182;2024-01-25T04:10:58;38.90;;;6.78;;
38851;SDS011;24605;50.092;9.182;2024-01-25T04:13:25;34.40;;;4.53;;
38851;SDS011;24605;50.092;9.182;2024-01-25T04:15:51;27.23;;;4.47;;
38851;SDS011;24605;50.092;9.182;2024-01-25T04:18:18;29.33;;;4.15;;
38851;SDS011;24605;50.092;9.182;2024-01-25T04:20:44;32.25;;;4.82;;
38851;SDS011;24605;50.092;9.182;2024-01-25T04:23:13;26.92;;;4.85;;
38851;SDS011;24605;50.092;9.182;2024-01-25T04:25:39;36.50;;;4.95;;
38851;SDS011;24605;50.092;9.182;2024-01-25T04:28:06;28.00;;;4.43;;
38851;SDS011;24605;50.092;9.182;2024-01-25T04:30:32;32.60;;;4.68;;
38851;SDS011;24605;50.092;9.182;2024-01-25T04:32:59;31.15;;;4.97;;
38851;SDS011;24605;50.092;9.182;2024-01-25T04:35:25;32.38;;;4.88;;
38851;SDS011;24605;50.092;9.182;2024-01-25T04:37:52;26.77;;;5.13;;
38851;SDS011;24605;50.092;9.182;2024-01-25T04:40:20;26.92;;;4.38;;
38851;SDS011;24605;50.092;9.182;2024-01-25T04:42:46;32.88;;;5.13;;
38851;SDS011;24605;50.092;9.182;2024-01-25T04:45:13;27.50;;;4.38;;
38851;SDS011;24605;50.092;9.182;2024-01-25T04:47:39;29.20;;;4.85;;
38851;SDS011;24605;50.092;9.182;2024-01-25T04:50:06;32.35;;;4.38;;
38851;SDS011;24605;50.092;9.182;2024-01-25T04:52:33;31.08;;;4.55;;
38851;SDS011;24605;50.092;9.182;2024-01-25T04:54:59;27.55;;;4.30;;
38851;SDS011;24605;50.092;9.182;2024-01-25T04:57:27;28.02;;;4.40;;
38851;SDS011;24605;50.092;9.182;2024-01-25T04:59:53;33.05;;;5.07;;
38851;SDS011;24605;50.092;9.182;2024-01-25T05:02:20;30.58;;;5.03;;
38851;SDS011;24605;50.092;9.182;2024-01-25T05:04:46;24.92;;;4.45;;
38851;SDS011;24605;50.092;9.182;2024-01-25T05:07:13;34.33;;;5.38;;
38851;SDS011;24605;50.092;9.182;2024-01-25T05:09:39;34.42;;;5.90;;
38851;SDS011;24605;50.092;9.182;2024-01-25T05:12:06;28.17;;;4.47;;
38851;SDS011;24605;50.092;9.182;2024-01-25T05:14:34;32.92;;;5.82;;
38851;SDS011;24605;50.092;9.182;2024-01-25T05:17:00;28.77;;;4.75;;
38851;SDS011;24605;50.092;9.182;2024-01-25T05:19:26;33.63;;;5.32;;
38851;SDS011;24605;50.092;9.182;2024-01-25T05:21:53;36.97;;;5.63;;
38851;SDS011;24605;50.092;9.182;2024-01-25T05:24:20;34.38;;;5.30;;
38851;SDS011;24605;50.092;9.182;2024-01-25T05:26:46;38.80;;;5.95;;
38851;SDS011;24605;50.092;9.182;2024-01-25T05:29:13;32.28;;;5.15;;
38851;SDS011;24605;50.092;9.182;2024-01-25T05:31:42;30.77;;;5.22;;
38851;SDS011;24605;50.092;9.182;2024-01-25T05:34:08;31.52;;;5.45;;
38851;SDS011;24605;50.092;9.182;2024-01-25T05:36:35;30.63;;;6.35;;
38851;SDS011;24605;50.092;9.182;2024-01-25T05:39:01;40.97;;;6.30;;
38851;SDS011;24605;50.092;9.182;2024-01-25T05:41:31;31.30;;;4.68;;
38851;SDS011;24605;50.092;9.182;2024-01-25T05:43:58;30.13;;;5.38;;
38851;SDS011;24605;50.092;9.182;2024-01-25T05:46:24;31.20;;;5.15;;
38851;SDS011;24605;50.092;9.182;2024-01-25T05:48:52;30.83;;;4.70;;
38851;SDS011;24605;50.092;9.182;2024-01-25T05:51:19;38.03;;;5.75;;
38851;SDS011;24605;50.092;9.182;2024-01-25T05:53:45;44.17;;;5.57;;
38851;SDS011;24605;50.092;9.182;2024-01-25T05:56:11;32.88;;;5.65;;
38851;SDS011;24605;50.092;9.182;2024-01-25T05:58:38;30.50;;;5.20;;
38851;SDS011;24605;50.092;9.182;2024-01-25T06:01:04;37.47;;;5.80;;
38851;SDS011;24605;50.092;9.182;2024-01-25T06:03:31;33.85;;;5.28;;
38851;SDS011;24605;50.092;9.182;2024-01-25T06:05:58;25.67;;;5.05;;
38851;SDS011;24605;50.092;9.182;2024-01-25T06:08:25;29.10;;;5.63;;
38851;SDS011;24605;50.092;9.182;2024-01-25T06:10:51;29.38;;;4.90;;
38851;SDS011;24605;50.092;9.182;2024-01-25T06:13:18;26.73;;;4.25;;
38851;SDS011;24605;50.092;9.182;2024-01-25T06:15:45;18.67;;;3.90;;
38851;SDS011;24605;50.092;9.182;2024-01-25T06:18:11;30.90;;;5.00;;
38851;SDS011;24605;50.092;9.182;2024-01-25T06:20:37;27.60;;;4.90;;
38851;SDS011;24605;50.092;9.182;2024-01-25T06:23:05;39.08;;;5.57;;
38851;SDS011;24605;50.092;9.182;2024-01-25T06:25:32;31.42;;;5.03;;
38851;SDS011;24605;50.092;9.182;2024-01-25T06:28:00;43.03;;;6.32;;
38851;SDS011;24605;50.092;9.182;2024-01-25T06:30:27;30.75;;;5.05;;
38851;SDS011;24605;50.092;9.182;2024-01-25T06:32:53;28.52;;;5.82;;
38851;SDS011;24605;50.092;9.182;2024-01-25T06:35:20;35.03;;;5.53;;
38851;SDS011;24605;50.092;9.182;2024-01-25T06:37:46;36.72;;;5.18;;
38851;SDS011;24605;50.092;9.182;2024-01-25T06:40:14;27.20;;;4.55;;
38851;SDS011;24605;50.092;9.182;2024-01-25T06:42:41;32.72;;;5.28;;
38851;SDS011;24605;50.092;9.182;2024-01-25T06:45:10;40.60;;;5.63;;
38851;SDS011;24605;50.092;9.182;2024-01-25T06:47:36;35.92;;;5.95;;
38851;SDS011;24605;50.092;9.182;2024-01-25T06:50:03;39.72;;;7.00;;
38851;SDS011;24605;50.092;9.182;2024-01-25T06:52:30;23.02;;;4.70;;
38851;SDS011;24605;50.092;9.182;2024-01-25T06:54:56;30.15;;;6.38;;
38851;SDS011;24605;50.092;9.182;2024-01-25T06:57:24;29.75;;;5.70;;
38851;SDS011;24605;50.092;9.182;2024-01-25T06:59:50;33.72;;;6.03;;
38851;SDS011;24605;50.092;9.182;2024-01-25T07:02:18;36.13;;;5.05;;
38851;SDS011;24605;50.092;9.182;2024-01-25T07:04:45;38.97;;;6.07;;
38851;SDS011;24605;50.092;9.182;2024-01-25T07:07:11;27.15;;;5.25;;
38851;SDS011;24605;50.092;9.182;2024-01-25T07:09:38;39.67;;;6.43;;
38851;SDS011;24605;50.092;9.182;2024-01-25T07:12:05;38.55;;;7.40;;
38851;SDS011;24605;50.092;9.182;2024-01-25T07:14:33;35.35;;;5.10;;
38851;SDS011;24605;50.092;9.182;2024-01-25T07:16:59;30.92;;;5.75;;
38851;SDS011;24605;50.092;9.182;2024-01-25T07:19:26;30.35;;;5.45;;
38851;SDS011;24605;50.092;9.182;2024-01-25T07:21:52;29.67;;;5.90;;
38851;SDS011;24605;50.092;9.182;2024-01-25T07:24:19;37.90;;;5.50;;
38851;SDS011;24605;50.092;9.182;2024-01-25T07:26:46;32.33;;;6.07;;
38851;SDS011;24605;50.092;9.182;2024-01-25T07:29:12;37.83;;;6.75;;
38851;SDS011;24605;50.092;9.182;2024-01-25T07:31:40;33.35;;;6.07;;
38851;SDS011;24605;50.092;9.182;2024-01-25T07:34:07;34.80;;;6.22;;
38851;SDS011;24605;50.092;9.182;2024-01-25T07:36:33;47.88;;;6.03;;
38851;SDS011;24605;50.092;9.182;2024-01-25T07:39:00;35.60;;;7.07;;
38851;SDS011;24605;50.092;9.182;2024-01-25T07:41:27;32.63;;;6.43;;
38851;SDS011;24605;50.092;9.182;2024-01-25T07:43:54;38.38;;;6.80;;
38851;SDS011;24605;50.092;9.182;2024-01-25T07:46:20;36.58;;;6.20;;
38851;SDS011;24605;50.092;9.182;2024-01-25T07:48:50;27.55;;;6.05;;
38851;SDS011;24605;50.092;9.182;2024-01-25T07:51:16;32.35;;;6.60;;
38851;SDS011;24605;50.092;9.182;2024-01-25T07:53:43;38.15;;;6.10;;
38851;SDS011;24605;50.092;9.182;2024-01-25T07:56:09;32.58;;;5.43;;
38851;SDS011;24605;50.092;9.182;2024-01-25T07:58:36;34.83;;;6.57;;
38851;SDS011;24605;50.092;9.182;2024-01-25T08:01:03;43.95;;;6.28;;
38851;SDS011;24605;50.092;9.182;2024-01-25T08:03:31;29.83;;;5.63;;
38851;SDS011;24605;50.092;9.182;2024-01-25T08:05:59;32.03;;;6.20;;
38851;SDS011;24605;50.092;9.182;2024-01-25T08:08:26;35.72;;;6.95;;
38851;SDS011;24605;50.092;9.182;2024-01-25T08:10:52;30.83;;;5.72;;
38851;SDS011;24605;50.092;9.182;2024-01-25T08:13:19;32.05;;;5.72;;
38851;SDS011;24605;50.092;9.182;2024-01-25T08:15:46;30.10;;;4.80;;
38851;SDS011;24605;50.092;9.182;2024-01-25T08:18:12;40.47;;;6.53;;
38851;SDS011;24605;50.092;9.182;2024-01-25T08:20:39;33.83;;;5.80;;
38851;SDS011;24605;50.092;9.182;2024-01-25T08:23:07;36.60;;;5.40;;
38851;SDS011;24605;50.092;9.182;2024-01-25T08:25:35;33.63;;;6.47;;
38851;SDS011;24605;50.092;9.182;2024-01-25T08:28:01;37.85;;;6.85;;
38851;SDS011;24605;50.092;9.182;2024-01-25T08:30:28;32.00;;;5.72;;
38851;SDS011;24605;50.092;9.182;2024-01-25T08:32:55;45.47;;;6.68;;
38851;SDS011;24605;50.092;9.182;2024-01-25T08:35:21;36.75;;;6.47;;
38851;SDS011;24605;50.092;9.182;2024-01-25T08:37:48;28.38;;;5.45;;
38851;SDS011;24605;50.092;9.182;2024-01-25T08:40:16;34.13;;;5.50;;
38851;SDS011;24605;50.092;9.182;2024-01-25T08:42:43;34.17;;;5.95;;
38851;SDS011;24605;50.092;9.182;2024-01-25T08:45:09;37.17;;;5.80;;
38851;SDS011;24605;50.092;9.182;2024-01-25T08:47:36;33.45;;;5.95;;
38851;SDS011;24605;50.092;9.182;2024-01-25T08:50:03;38.20;;;6.82;;
38851;SDS011;24605;50.092;9.182;2024-01-25T08:52:30;27.23;;;5.95;;
38851;SDS011;24605;50.092;9.182;2024-01-25T08:54:57;32.10;;;6.22;;
38851;SDS011;24605;50.092;9.182;2024-01-25T08:57:25;27.17;;;6.45;;
38851;SDS011;24605;50.092;9.182;2024-01-25T08:59:51;33.75;;;5.95;;
38851;SDS011;24605;50.092;9.182;2024-01-25T09:02:19;33.50;;;6.43;;
38851;SDS011;24605;50.092;9.182;2024-01-25T09:04:51;36.72;;;5.97;;
38851;SDS011;24605;50.092;9.182;2024-01-25T09:07:18;33.45;;;6.90;;
38851;SDS011;24605;50.092;9.182;2024-01-25T09:09:45;32.45;;;6.13;;
38851;SDS011;24605;50.092;9.182;2024-01-25T09:12:11;36.17;;;6.57;;
38851;SDS011;24605;50.092;9.182;2024-01-25T09:14:40;29.00;;;5.05;;
38851;SDS011;24605;50.092;9.182;2024-01-25T09:17:07;30.73;;;5.55;;
38851;SDS011;24605;50.092;9.182;2024-01-25T09:19:34;35.80;;;7.10;;
38851;SDS011;24605;50.092;9.182;2024-01-25T09:22:00;33.92;;;6.88;;
38851;SDS011;24605;50.092;9.182;2024-01-25T09:24:29;30.05;;;6.20;;
38851;SDS011;24605;50.092;9.182;2024-01-25T09:26:56;41.10;;;7.97;;
38851;SDS011;24605;50.092;9.182;2024-01-25T09:29:24;29.73;;;6.07;;
38851;SDS011;24605;50.092;9.182;2024-01-25T09:31:51;32.53;;;5.85;;
38851;SDS011;24605;50.092;9.182;2024-01-25T09:34:18;39.92;;;7.13;;
38851;SDS011;24605;50.092;9.182;2024-01-25T09:36:44;37.75;;;7.10;;
38851;SDS011;24605;50.092;9.182;2024-01-25T09:39:11;31.67;;;6.32;;
38851;SDS011;24605;50.092;9.182;2024-01-25T09:41:39;38.13;;;6.20;;
38851;SDS011;24605;50.092;9.182;2024-01-25T09:44:06;28.17;;;6.47;;
38851;SDS011;24605;50.092;9.182;2024-01-25T09:46:34;37.17;;;6.15;;
38851;SDS011;24605;50.092;9.182;2024-01-25T09:49:02;27.98;;;6.18;;
38851;SDS011;24605;50.092;9.182;2024-01-25T09:51:29;34.47;;;10.32;;
38851;SDS011;24605;50.092;9.182;2024-01-25T09:54:02;38.00;;;5.97;;
38851;SDS011;24605;50.092;9.182;2024-01-25T09:56:29;35.30;;;6.72;;
38851;SDS011;24605;50.092;9.182;2024-01-25T09:58:58;34.70;;;6.70;;
38851;SDS011;24605;50.092;9.182;2024-01-25T10:01:25;31.63;;;6.40;;
38851;SDS011;24605;50.092;9.182;2024-01-25T10:03:53;32.13;;;7.63;;
38851;SDS011;24605;50.092;9.182;2024-01-25T10:06:22;31.63;;;6.72;;
38851;SDS011;24605;50.092;9.182;2024-01-25T10:08:49;38.88;;;6.63;;
38851;SDS011;24605;50.092;9.182;2024-01-25T10:11:16;28.27;;;5.55;;
38851;SDS011;24605;50.092;9.182;2024-01-25T10:13:42;44.10;;;7.13;;
38851;SDS011;24605;50.092;9.182;2024-01-25T10:16:10;35.65;;;7.32;;
38851;SDS011;24605;50.092;9.182;2024-01-25T10:18:37;36.95;;;6.68;;
38851;SDS011;24605;50.092;9.182;2024-01-25T10:21:06;32.83;;;6.05;;
38851;SDS011;24605;50.092;9.182;2024-01-25T10:23:33;33.05;;;6.45;;
38851;SDS011;24605;50.092;9.182;2024-01-25T10:26:00;38.55;;;7.38;;
38851;SDS011;24605;50.092;9.182;2024-01-25T10:28:27;32.30;;;6.72;;
38851;SDS011;24605;50.092;9.182;2024-01-25T10:30:55;32.13;;;6.65;;
38851;SDS011;24605;50.092;9.182;2024-01-25T10:33:23;37.97;;;6.78;;
38851;SDS011;24605;50.092;9.182;2024-01-25T10:35:51;38.60;;;6.97;;
38851;SDS011;24605;50.092;9.182;2024-01-25T10:38:20;31.77;;;6.50;;
38851;SDS011;24605;50.092;9.182;2024-01-25T10:40:49;36.17;;;7.72;;
38851;SDS011;24605;50.092;9.182;2024-01-25T10:43:16;26.50;;;5.95;;
38851;SDS011;24605;50.092;9.182;2024-01-25T10:45:43;27.98;;;5.90;;
38851;SDS011;24605;50.092;9.182;2024-01-25T10:48:10;36.30;;;6.30;;
38851;SDS011;24605;50.092;9.182;2024-01-25T10:50:37;26.52;;;5.95;;
38851;SDS011;24605;50.092;9.182;2024-01-25T10:53:04;35.22;;;5.97;;
38851;SDS011;24605;50.092;9.182;2024-01-25T10:55:33;31.17;;;6.05;;
38851;SDS011;24605;50.092;9.182;2024-01-25T10:58:01;34.10;;;5.38;;
38851;SDS011;24605;50.092;9.182;2024-01-25T11:00:28;30.80;;;6.00;;
38851;SDS011;24605;50.092;9.182;2024-01-25T11:02:58;30.92;;;6.05;;
38851;SDS011;24605;50.092;9.182;2024-01-25T11:05:26;39.00;;;6.53;;
38851;SDS011;24605;50.092;9.182;2024-01-25T11:07:53;32.35;;;5.90;;
38851;SDS011;24605;50.092;9.182;2024-01-25T11:10:21;31.50;;;6.28;;
38851;SDS011;24605;50.092;9.182;2024-01-25T11:12:50;27.95;;;6.50;;
38851;SDS011;24605;50.092;9.182;2024-01-25T11:15:21;35.75;;;6.65;;
38851;SDS011;24605;50.092;9.182;2024-01-25T11:17:52;26.90;;;5.65;;
38851;SDS011;24605;50.092;9.182;2024-01-25T11:20:20;27.15;;;6.10;;
38851;SDS011;24605;50.092;9.182;2024-01-25T11:22:48;30.48;;;6.47;;
38851;SDS011;24605;50.092;9.182;2024-01-25T11:25:19;29.02;;;5.70;;
38851;SDS011;24605;50.092;9.182;2024-01-25T11:27:46;30.45;;;5.28;;
38851;SDS011;24605;50.092;9.182;2024-01-25T11:30:14;27.60;;;5.20;;
38851;SDS011;24605;50.092;9.182;2024-01-25T11:32:44;25.08;;;5.10;;
38851;SDS011;24605;50.092;9.182;2024-01-25T11:35:12;33.97;;;6.30;;
38851;SDS011;24605;50.092;9.182;2024-01-25T11:37:41;32.97;;;6.78;;
38851;SDS011;24605;50.092;9.182;2024-01-25T11:40:09;34.78;;;6.40;;
38851;SDS011;24605;50.092;9.182;2024-01-25T11:42:36;33.53;;;5.68;;
38851;SDS011;24605;50.092;9.182;2024-01-25T11:45:03;27.02;;;5.75;;
38851;SDS011;24605;50.092;9.182;2024-01-25T11:47:30;30.55;;;4.82;;
38851;SDS011;24605;50.092;9.182;2024-01-25T11:49:58;34.70;;;8.23;;
38851;SDS011;24605;50.092;9.182;2024-01-25T11:52:25;27.52;;;6.65;;
38851;SDS011;24605;50.092;9.182;2024-01-25T11:54:52;31.90;;;6.38;;
38851;SDS011;24605;50.092;9.182;2024-01-25T11:57:18;27.25;;;6.72;;
38851;SDS011;24605;50.092;9.182;2024-01-25T11:59:45;26.85;;;6.38;;
38851;SDS011;24605;50.092;9.182;2024-01-25T12:02:12;27.33;;;5.60;;
38851;SDS011;24605;50.092;9.182;2024-01-25T12:04:39;29.00;;;5.43;;
38851;SDS011;24605;50.092;9.182;2024-01-25T12:07:07;28.52;;;5.15;;
38851;SDS011;24605;50.092;9.182;2024-01-25T12:09:34;21.23;;;5.40;;
38851;SDS011;24605;50.092;9.182;2024-01-25T12:12:01;24.05;;;4.78;;
38851;SDS011;24605;50.092;9.182;2024-01-25T12:14:28;23.77;;;4.20;;
38851;SDS011;24605;50.092;9.182;2024-01-25T12:16:55;23.05;;;4.47;;
38851;SDS011;24605;50.092;9.182;2024-01-25T12:19:21;21.85;;;4.40;;
38851;SDS011;24605;50.092;9.182;2024-01-25T12:21:48;27.30;;;5.03;;
38851;SDS011;24605;50.092;9.182;2024-01-25T12:24:17;28.83;;;5.10;;
38851;SDS011;24605;50.092;9.182;2024-01-25T12:26:45;31.98;;;5.68;;
38851;SDS011;24605;50.092;9.182;2024-01-25T12:29:13;27.25;;;4.65;;
38851;SDS011;24605;50.092;9.182;2024-01-25T12:31:39;20.80;;;4.22;;
38851;SDS011;24605;50.092;9.182;2024-01-25T12:34:11;27.30;;;4.75;;
38851;SDS011;24605;50.092;9.182;2024-01-25T12:36:39;29.38;;;4.80;;
38851;SDS011;24605;50.092;9.182;2024-01-25T12:39:06;29.58;;;5.65;;
38851;SDS011;24605;50.092;9.182;2024-01-25T12:41:35;31.05;;;6.18;;
38851;SDS011;24605;50.092;9.182;2024-01-25T12:44:01;32.45;;;6.10;;
38851;SDS011;24605;50.092;9.182;2024-01-25T12:46:29;25.80;;;6.38;;
38851;SDS011;24605;50.092;9.182;2024-01-25T12:48:55;27.33;;;5.45;;
38851;SDS011;24605;50.092;9.182;2024-01-25T12:51:23;28.10;;;5.40;;
38851;SDS011;24605;50.092;9.182;2024-01-25T12:53:50;35.28;;;5.60;;
38851;SDS011;24605;50.092;9.182;2024-01-25T12:56:16;25.05;;;5.18;;
38851;SDS011;24605;50.092;9.182;2024-01-25T12:58:44;23.52;;;4.60;;
38851;SDS011;24605;50.092;9.182;2024-01-25T13:01:11;26.02;;;5.38;;
38851;SDS011;24605;50.092;9.182;2024-01-25T13:03:37;23.42;;;5.57;;
38851;SDS011;24605;50.092;9.182;2024-01-25T13:06:04;32.28;;;5.43;;
38851;SDS011;24605;50.092;9.182;2024-01-25T13:08:30;23.42;;;4.97;;
38851;SDS011;24605;50.092;9.182;2024-01-25T13:10:57;29.23;;;4.60;;
38851;SDS011;24605;50.092;9.182;2024-01-25T13:13:23;26.17;;;4.28;;
38851;SDS011;24605;50.092;9.182;2024-01-25T13:15:52;25.02;;;5.00;;
38851;SDS011;24605;50.092;9.182;2024-01-25T13:18:18;32.00;;;6.03;;
38851;SDS011;24605;50.092;9.182;2024-01-25T13:20:45;25.00;;;5.78;;
38851;SDS011;24605;50.092;9.182;2024-01-25T13:23:11;23.10;;;4.70;;
38851;SDS011;24605;50.092;9.182;2024-01-25T13:25:37;31.52;;;5.88;;
38851;SDS011;24605;50.092;9.182;2024-01-25T13:28:04;27.45;;;5.68;;
38851;SDS011;24605;50.092;9.182;2024-01-25T13:30:31;27.00;;;5.53;;
38851;SDS011;24605;50.092;9.182;2024-01-25T13:32:58;29.50;;;7.15;;
38851;SDS011;24605;50.092;9.182;2024-01-25T13:35:25;32.17;;;6.30;;
38851;SDS011;24605;50.092;9.182;2024-01-25T13:37:51;25.67;;;5.32;;
38851;SDS011;24605;50.092;9.182;2024-01-25T13:40:18;24.02;;;4.55;;
38851;SDS011;24605;50.092;9.182;2024-01-25T13:42:44;24.92;;;5.03;;
38851;SDS011;24605;50.092;9.182;2024-01-25T13:45:11;28.70;;;4.63;;
38851;SDS011;24605;50.092;9.182;2024-01-25T13:47:37;23.40;;;4.65;;
38851;SDS011;24605;50.092;9.182;2024-01-25T13:50:05;25.58;;;4.63;;
38851;SDS011;24605;50.092;9.182;2024-01-25T13:52:32;25.92;;;5.68;;
38851;SDS011;24605;50.092;9.182;2024-01-25T13:54:59;22.88;;;4.75;;
38851;SDS011;24605;50.092;9.182;2024-01-25T13:57:25;26.23;;;4.22;;
38851;SDS011;24605;50.092;9.182;2024-01-25T13:59:51;28.67;;;5.25;;
38851;SDS011;24605;50.092;9.182;2024-01-25T14:02:18;21.98;;;4.35;;
38851;SDS011;24605;50.092;9.182;2024-01-25T14:04:44;27.23;;;5.90;;
38851;SDS011;24605;50.092;9.182;2024-01-25T14:07:14;29.73;;;5.43;;
38851;SDS011;24605;50.092;9.182;2024-01-25T14:09:41;25.17;;;4.35;;
38851;SDS011;24605;50.092;9.182;2024-01-25T14:12:07;23.15;;;4.47;;
38851;SDS011;24605;50.092;9.182;2024-01-25T14:14:36;25.13;;;5.30;;
38851;SDS011;24605;50.092;9.182;2024-01-25T14:17:02;30.25;;;7.65;;
38851;SDS011;24605;50.092;9.182;2024-01-25T14:19:29;42.67;;;9.48;;
38851;SDS011;24605;50.092;9.182;2024-01-25T14:21:55;41.53;;;11.35;;
38851;SDS011;24605;50.092;9.182;2024-01-25T14:24:23;36.38;;;10.98;;
38851;SDS011;24605;50.092;9.182;2024-01-25T14:26:50;51.17;;;17.20;;
38851;SDS011;24605;50.092;9.182;2024-01-25T14:29:16;36.20;;;10.60;;
38851;SDS011;24605;50.092;9.182;2024-01-25T14:31:42;33.63;;;11.93;;